EW3966 Weather Reports


Display with metric or nautical units.
time (UTC)temp
F
wind
direction
speed
MPH
gust
MPH
rain 1hr
in
rain 24hr
in
rain mn
in
humidity
%
barometer
mb
20260505173018 60 220 10.0 29.0 0.00 0.00 0.00 43 1010.6
20260505172007 60 172 10.0 29.0 0.00 0.00 0.00 42 1010.4
20260505171507 60 200 9.0 29.0 0.00 0.00 0.00 43 1010.5
20260505171010 60 278 11.0 29.0 0.00 0.00 0.00 44 1010.2
20260505170504 60 275 12.0 29.0 0.00 0.00 0.00 43 1010.2
20260505170004 60 228 10.0 29.0 0.00 0.00 0.00 42 1010.3
20260505165503 60 164 11.0 29.0 0.00 0.00 0.00 41 1010.1
20260505165003 60 234 10.0 32.0 0.00 0.00 0.00 40 1010.1
20260505164503 60 185 10.0 32.0 0.00 0.00 0.00 39 1010.3
20260505164003 60 255 9.0 27.0 0.00 0.00 0.00 39 1010.2
20260505163501 59 257 10.0 27.0 0.00 0.00 0.00 39 1009.9
20260505163009 59 245 11.0 21.0 0.00 0.00 0.00 39 1009.9
20260505162001 59 278 12.0 29.0 0.00 0.00 0.00 40 1010.0
20260505161600 59 266 10.0 25.0 0.00 0.00 0.00 40 1009.8
20260505161059 59 205 9.0 25.0 0.00 0.00 0.00 42 1009.7
20260505160559 59 232 12.0 23.0 0.00 0.00 0.00 41 1009.7
20260505153108 59 216 9.0 21.0 0.00 0.00 0.00 46 1009.3
20260505152052 58 234 10.0 23.0 0.00 0.00 0.00 46 1009.3
20260505151556 58 289 9.0 22.0 0.00 0.00 0.00 46 1009.3
20260505151052 58 234 10.0 24.0 0.00 0.00 0.00 48 1009.0
20260505150549 58 201 10.0 24.0 0.00 0.00 0.00 48 1009.1
20260505140543 55 197 9.0 21.0 0.00 0.00 0.00 60 1008.8
20260505125031 53 228 6.0 14.0 0.00 0.00 0.00 72 1008.1
20260505124531 53 200 7.0 20.0 0.00 0.00 0.00 72 1007.9
20260505124029 52 231 7.0 20.0 0.00 0.00 0.00 74 1007.9
20260505123528 52 267 9.0 20.0 0.00 0.00 0.00 75 1007.9
20260505123028 52 195 7.0 20.0 0.00 0.00 0.00 74 1007.8
20260505122027 52 212 5.0 16.0 0.00 0.00 0.00 77 1007.6
20260505121529 51 219 7.0 28.0 0.00 0.00 0.00 77 1007.6
20260505121025 50 194 9.0 28.0 0.00 0.00 0.00 77 1007.3
20260505120524 51 180 7.0 22.0 0.00 0.00 0.00 77 1007.4
20260505120023 50 200 10.0 24.0 0.00 0.00 0.00 78 1007.3
20260505115523 50 209 8.0 24.0 0.00 0.00 0.00 78 1007.2
20260505115024 50 254 9.0 21.0 0.00 0.00 0.00 77 1007.2
20260505114532 50 185 7.0 21.0 0.00 0.00 0.00 78 1007.3
20260505114022 50 216 6.0 21.0 0.00 0.00 0.00 78 1007.4
20260505113521 50 230 6.0 20.0 0.00 0.00 0.00 78 1007.4
20260505113020 50 253 5.0 18.0 0.00 0.00 0.00 78 1007.5
20260505112019 50 223 7.0 20.0 0.00 0.00 0.00 78 1007.4
20260505111519 49 224 6.0 20.0 0.00 0.00 0.00 78 1007.3
20260505111018 49 217 6.0 22.0 0.00 0.00 0.00 78 1007.2
20260505110517 50 239 8.0 22.0 0.00 0.00 0.00 77 1007.0
20260505102008 47 272 7.0 16.0 0.00 0.00 0.00 81 1006.1
20260505101508 47 215 8.0 15.0 0.00 0.00 0.00 81 1006.0
20260505101007 46 257 6.0 18.0 0.00 0.00 0.00 82 1006.1
20260505100506 46 201 8.0 18.0 0.00 0.00 0.00 82 1006.0
20260505100008 46 237 6.0 15.0 0.00 0.00 0.00 82 1005.8
20260505095505 46 222 6.0 15.0 0.00 0.00 0.00 83 1005.7
20260505095003 45 168 5.0 15.0 0.00 0.00 0.00 83 1005.8
20260505094504 45 234 6.0 18.0 0.00 0.00 0.00 83 1005.9
20260505094001 45 246 6.0 18.0 0.00 0.00 0.00 84 1005.8
20260505093600 44 261 6.0 14.0 0.00 0.00 0.00 84 1005.5
20260505093102 44 201 6.0 14.0 0.00 0.00 0.00 84 1005.4
20260505092659 43 240 6.0 18.0 0.00 0.00 0.00 85 1005.5
20260505092058 43 229 8.0 18.0 0.00 0.00 0.00 85 1005.4
20260505091602 43 219 7.0 14.0 0.00 0.00 0.00 85 1005.2
20260505091058 43 212 5.0 13.0 0.00 0.00 0.00 86 1005.1
20260505090558 42 260 6.0 14.0 0.00 0.00 0.00 86 1005.1
20260505090101 42 261 6.0 14.0 0.00 0.00 0.00 86 1005.0
20260505085558 42 237 7.0 15.0 0.00 0.00 0.00 87 1005.1
20260505085105 42 255 5.0 18.0 0.00 0.00 0.00 87 1005.1
20260505084557 41 230 6.0 12.0 0.00 0.00 0.00 87 1005.2
20260505084058 41 258 5.0 19.0 0.00 0.00 0.00 87 1005.2
20260505083557 41 219 6.0 19.0 0.00 0.00 0.00 87 1005.3
20260505083056 41 253 6.0 15.0 0.00 0.00 0.00 87 1005.2
20260505082656 41 210 6.0 20.0 0.00 0.00 0.00 87 1005.0
20260505082056 41 234 7.0 20.0 0.00 0.00 0.00 87 1005.0
20260505081602 41 311 4.0 13.0 0.00 0.00 0.00 87 1004.9
20260505081056 41 208 6.0 14.0 0.00 0.00 0.00 86 1005.1
20260505080554 41 214 5.0 14.0 0.00 0.00 0.00 86 1005.0
20260505080055 41 140 5.0 13.0 0.00 0.00 0.00 86 1005.0
20260505075558 41 172 7.0 13.0 0.00 0.00 0.00 86 1005.1
20260505075053 41 236 6.0 15.0 0.00 0.00 0.00 86 1004.9
20260505074608 40 248 7.0 15.0 0.00 0.00 0.00 86 1004.7
20260505074052 40 240 5.0 12.0 0.00 0.00 0.00 86 1004.7
20260505073552 40 268 6.0 12.0 0.00 0.00 0.00 86 1004.5
20260505073054 40 299 4.0 13.0 0.00 0.00 0.00 86 1004.5
20260505072654 40 278 7.0 16.0 0.00 0.00 0.00 86 1004.5
20260505072052 40 194 7.0 16.0 0.00 0.00 0.00 86 1004.5
20260505071551 40 185 7.0 15.0 0.00 0.00 0.00 86 1004.4
20260505071051 40 220 4.0 16.0 0.00 0.00 0.00 86 1004.5
20260505070551 40 235 6.0 16.0 0.00 0.00 0.00 86 1004.4
20260505070052 40 244 6.0 13.0 0.00 0.00 0.00 86 1004.3
20260505065550 40 228 4.0 13.0 0.00 0.00 0.00 86 1004.3
20260505065050 40 226 7.0 13.0 0.00 0.00 0.00 86 1004.4
20260505064550 40 280 4.0 13.0 0.00 0.00 0.00 86 1004.4
20260505064049 40 262 5.0 14.0 0.00 0.00 0.00 85 1004.5
20260505063549 40 239 6.0 14.0 0.00 0.00 0.00 85 1004.6
20260505063050 40 237 5.0 15.0 0.00 0.00 0.00 85 1004.4
20260505062647 40 219 7.0 15.0 0.00 0.00 0.00 84 1004.3
20260505062044 40 274 5.0 15.0 0.00 0.00 0.00 84 1004.2
20260505061614 40 307 6.0 13.0 0.00 0.00 0.00 84 1004.2
20260505061044 40 243 7.0 15.0 0.00 0.00 0.00 83 1004.2
20260505060550 41 256 8.0 19.0 0.00 0.00 0.00 83 1004.2
20260505060046 41 191 8.0 19.0 0.00 0.00 0.00 83 1004.2
20260505055542 41 209 8.0 14.0 0.00 0.00 0.00 83 1004.0
20260505055044 41 224 6.0 14.0 0.00 0.00 0.00 83 1004.0
20260505054555 41 159 5.0 19.0 0.00 0.00 0.00 83 1003.9
20260505054044 41 177 6.0 14.0 0.00 0.00 0.00 83 1003.7
20260505053539 41 199 6.0 16.0 0.00 0.00 0.00 83 1003.7
20260505053039 41 175 8.0 16.0 0.00 0.00 0.00 83 1003.7
20260505052641 41 209 7.0 13.0 0.00 0.00 0.00 84 1003.5
20260505052039 41 212 4.0 15.0 0.00 0.00 0.00 84 1003.5
20260505051539 41 268 6.0 22.0 0.00 0.00 0.00 84 1003.5
20260505051038 41 216 8.0 22.0 0.00 0.00 0.00 84 1003.5
20260505050539 41 209 8.0 21.0 0.00 0.00 0.00 83 1003.5
20260505041532 41 232 5.0 18.0 0.00 0.00 0.00 83 1003.4
20260505041031 41 185 8.0 18.0 0.00 0.00 0.00 82 1003.4
20260505040530 41 187 4.0 14.0 0.00 0.00 0.00 82 1003.4
20260505040032 41 191 5.0 12.0 0.00 0.00 0.00 82 1003.4
20260505035530 42 178 4.0 12.0 0.00 0.00 0.00 82 1003.4
20260505035027 42 254 5.0 12.0 0.00 0.00 0.00 82 1003.4
20260505034527 42 232 6.0 14.0 0.00 0.00 0.00 81 1003.3
20260505034026 42 244 3.0 13.0 0.00 0.00 0.00 82 1003.4
20260505033529 42 209 5.0 14.0 0.00 0.00 0.00 82 1003.3
20260505033034 42 213 4.0 19.0 0.00 0.00 0.00 82 1003.3
20260505032625 43 197 4.0 14.0 0.00 0.00 0.00 82 1003.3
20260505032026 43 191 3.0 14.0 0.00 0.00 0.00 82 1003.3
20260505031524 43 208 6.0 14.0 0.00 0.00 0.00 82 1003.3
20260505031022 43 237 4.0 14.0 0.00 0.00 0.00 82 1003.1
20260505030521 43 207 5.0 11.0 0.00 0.00 0.00 81 1003.0
20260505030020 43 241 3.0 10.0 0.00 0.00 0.00 81 1002.9
20260505025521 43 243 4.0 11.0 0.00 0.00 0.00 82 1002.8
20260505025018 43 223 6.0 11.0 0.00 0.00 0.00 82 1002.7
20260505024538 44 266 5.0 18.0 0.00 0.00 0.00 82 1002.7
20260505024020 44 225 7.0 18.0 0.00 0.00 0.00 82 1002.5
20260505023518 44 243 4.0 19.0 0.00 0.00 0.00 81 1002.6
20260505023013 44 201 6.0 19.0 0.00 0.00 0.00 81 1002.6
20260505022614 44 197 7.0 18.0 0.00 0.00 0.00 81 1002.4
20260505022015 44 230 6.0 18.0 0.00 0.00 0.00 81 1002.5
20260505021528 44 219 7.0 20.0 0.00 0.00 0.00 81 1002.2
20260505021013 44 228 6.0 23.0 0.00 0.00 0.00 81 1002.1
20260505020512 44 192 10.0 23.0 0.00 0.00 0.00 81 1001.9
20260505020013 44 227 7.0 21.0 0.00 0.00 0.00 80 1001.8
20260505015517 44 217 7.0 19.0 0.00 0.00 0.00 81 1001.6
20260505015013 44 214 7.0 24.0 0.00 0.00 0.00 81 1001.5
20260505014513 44 257 8.0 24.0 0.00 0.00 0.00 81 1001.5
20260505014012 44 189 7.0 21.0 0.00 0.00 0.00 81 1001.5
20260505013512 44 205 8.0 21.0 0.00 0.00 0.00 81 1001.5
20260505013012 44 260 8.0 25.0 0.00 0.00 0.00 81 1001.3
20260505012612 44 272 9.0 25.0 0.00 0.00 0.00 82 1001.1
20260505012015 44 270 10.0 24.0 0.00 0.00 0.00 82 1001.1
20260505011512 44 266 9.0 25.0 0.00 0.00 0.00 82 1001.0
20260505011011 44 226 10.0 25.0 0.00 0.00 0.00 82 1001.0
20260505010512 44 66 9.0 23.0 0.00 0.00 0.00 82 1001.0
20260505010012 44 184 7.0 26.0 0.00 0.00 0.00 82 1001.0
20260505005512 44 239 11.0 26.0 0.00 0.00 0.00 82 1000.9
20260505005011 44 224 10.0 27.0 0.00 0.00 0.00 82 1001.1
20260505004521 44 245 8.0 27.0 0.00 0.00 0.00 82 1000.7
20260505004010 44 212 9.0 23.0 0.00 0.00 0.00 83 1000.7
20260505003510 44 216 10.0 27.0 0.00 0.00 0.00 83 1000.6
20260505003011 44 198 10.0 27.0 0.00 0.00 0.00 83 1000.2
20260505002613 44 265 8.0 28.0 0.00 0.00 0.00 83 1000.1
20260505002010 44 235 11.0 28.0 0.00 0.00 0.00 83 1000.1
20260505001510 43 197 9.0 26.0 0.00 0.00 0.00 83 999.9
20260505001010 44 271 9.0 26.0 0.00 0.00 0.00 83 999.9
20260505000511 44 235 10.0 26.0 0.00 0.00 0.00 84 999.8
20260505000011 44 185 8.0 24.0 0.00 0.00 0.00 84 999.6
20260504235510 44 206 10.0 22.0 0.00 0.00 0.00 84 999.5
20260504235012 43 209 8.0 22.0 0.00 0.00 0.00 84 999.2
20260504234509 43 227 10.0 24.0 0.00 0.00 0.00 84 999.1
20260504234012 43 261 8.0 27.0 0.00 0.00 0.00 84 998.8
20260504233508 43 263 8.0 23.0 0.00 0.00 0.00 84 998.6
20260504233008 43 250 8.0 24.0 0.00 0.00 0.00 84 998.6
20260504232609 43 204 11.0 28.0 0.00 0.00 0.00 84 998.2
20260504232010 43 199 10.0 28.0 0.00 0.00 0.00 84 998.1
20260504231510 43 207 11.0 31.0 0.00 0.00 0.00 84 998.0
20260504231009 43 168 12.0 31.0 0.00 0.00 0.00 84 997.9
20260504230509 43 244 12.0 30.0 0.00 0.00 0.00 84 997.9
20260504230009 43 272 13.0 30.0 0.00 0.00 0.00 84 997.5
20260504225512 43 270 9.0 26.0 0.00 0.00 0.00 84 997.5
20260504225009 43 276 15.0 31.0 0.00 0.00 0.00 84 997.2
20260504224510 43 217 12.0 28.0 0.00 0.00 0.00 84 997.2
20260504224008 43 207 11.0 28.0 0.00 0.00 0.00 84 997.4
20260504223508 43 228 11.0 33.0 0.00 0.00 0.00 84 997.1
20260504223007 43 198 13.0 33.0 0.00 0.00 0.00 84 996.9
20260504222607 43 218 14.0 29.0 0.00 0.00 0.00 85 996.8
20260504222012 43 201 11.0 27.0 0.00 0.00 0.00 85 996.7
20260504221508 43 182 9.0 27.0 0.00 0.00 0.00 85 996.5
20260504221006 43 207 12.0 27.0 0.00 0.00 0.00 85 996.5
20260504220510 43 199 10.0 31.0 0.00 0.00 0.00 85 996.4
20260504220007 43 260 11.0 28.0 0.00 0.00 0.00 85 996.2
20260504215507 43 247 12.0 29.0 0.00 0.00 0.00 85 995.8
20260504215007 43 236 12.0 41.0 0.00 0.00 0.00 85 995.8
20260504214506 43 193 12.0 41.0 0.00 0.00 0.00 85 995.7
20260504214009 43 258 12.0 31.0 0.00 0.00 0.00 85 995.3
20260504213507 43 216 10.0 30.0 0.00 0.00 0.00 85 995.4
20260504213005 43 199 15.0 28.0 0.00 0.00 0.00 85 995.3
20260504212606 43 217 12.0 26.0 0.00 0.00 0.00 85 995.2
20260504212005 43 197 12.0 26.0 0.00 0.00 0.00 85 995.2
20260504211507 43 235 11.0 30.0 0.00 0.00 0.00 85 994.8
20260504211006 43 253 10.0 28.0 0.00 0.00 0.00 85 994.9
20260504210505 43 246 11.0 28.0 0.00 0.00 0.00 85 995.0
20260504210007 43 258 13.0 27.0 0.00 0.00 0.00 84 994.8
20260504205607 43 175 12.0 31.0 0.00 0.00 0.00 84 994.6
20260504205005 43 226 12.0 31.0 0.00 0.00 0.00 84 994.5
20260504204514 43 291 12.0 26.0 0.00 0.00 0.00 84 994.6
20260504204004 43 250 10.0 27.0 0.00 0.00 0.00 84 994.3
20260504203504 43 263 12.0 28.0 0.00 0.00 0.00 84 994.5
20260504203004 43 294 11.0 28.0 0.00 0.00 0.00 83 994.2
20260504202604 43 221 12.0 28.0 0.00 0.00 0.00 84 994.2
20260504202005 43 255 12.0 24.0 0.00 0.00 0.00 84 994.2
20260504201505 43 224 12.0 25.0 0.00 0.00 0.00 84 993.9
20260504201005 43 231 12.0 27.0 0.00 0.00 0.00 84 993.9
20260504200504 43 262 12.0 27.0 0.00 0.00 0.00 85 993.9
20260504200005 43 220 10.0 32.0 0.00 0.00 0.00 85 993.8
20260504195505 43 257 12.0 32.0 0.00 0.00 0.00 85 993.7
20260504195004 43 207 13.0 29.0 0.00 0.00 0.00 85 993.8
20260504194506 43 214 12.0 29.0 0.00 0.00 0.00 85 994.0
20260504194005 43 181 10.0 29.0 0.00 0.00 0.00 85 993.8
20260504193504 43 255 11.0 28.0 0.00 0.00 0.00 85 993.9
20260504193004 43 198 9.0 25.0 0.00 0.00 0.00 85 993.8
20260504192603 43 176 8.0 33.0 0.00 0.00 0.00 85 993.8
20260504192002 43 234 9.0 33.0 0.00 0.00 0.00 85 993.8
20260504191502 43 168 13.0 31.0 0.00 0.00 0.00 84 993.7
20260504191001 43 245 10.0 26.0 0.00 0.00 0.00 85 993.7
20260504190501 43 232 11.0 26.0 0.00 0.00 0.00 84 993.6
20260504190002 43 215 10.0 26.0 0.00 0.00 0.00 84 993.7
20260504185600 43 253 10.0 22.0 0.00 0.00 0.00 83 993.6
20260504185100 43 247 8.0 29.0 0.00 0.00 0.00 83 993.6
20260504184502 43 219 11.0 26.0 0.00 0.00 0.00 83 993.7
20260504184002 43 245 12.0 25.0 0.00 0.00 0.00 83 993.4
20260504183601 43 243 7.0 27.0 0.00 0.00 0.00 83 993.4
20260504183105 44 202 9.0 27.0 0.00 0.00 0.00 83 993.4
20260504182600 44 270 11.0 28.0 0.00 0.00 0.00 82 993.1
20260504182004 44 251 13.0 28.0 0.00 0.00 0.00 82 993.2
20260504181501 44 261 11.0 29.0 0.00 0.00 0.00 82 993.3
20260504181101 44 257 12.0 29.0 0.00 0.00 0.00 82 993.2
20260504181003 44 179 11.0 29.0 0.00 0.00 0.00 82 993.4
20260504180602 44 214 11.0 26.0 0.00 0.00 0.00 82 993.4
20260504180100 44 284 12.0 26.0 0.00 0.00 0.00 82 993.2
20260504180002 44 259 9.0 25.0 0.00 0.00 0.00 82 993.1
20260504175600 44 310 9.0 25.0 0.00 0.00 0.00 82 993.3
20260504175100 44 249 8.0 28.0 0.00 0.00 0.00 82 993.2
20260504174600 44 224 12.0 28.0 0.00 0.00 0.00 81 993.7
20260504174100 44 164 8.0 32.0 0.00 0.00 0.00 81 993.1
20260504173601 44 212 11.0 32.0 0.00 0.00 0.00 80 993.1